Station Historical Data
Daily Summary for December 6, 2017 Units:  Metric    English   Both
« Previous Day
Next Day »
Daily Weekly Monthly Yearly Custom
  High: Low: Average:
Temperature: 2.8 °C 0 °C 1.3 °C
Dew Point: -0.4 °C -6.8 °C -3.6 °C
Humidity: 88% 58% 71%
Wind Speed: 32.2km/h 3.2km/h 16.6km/h
Wind Gust: 54.7km/h - -
Wind- - WSW
Pressure: 1013.1 hPa 1010.4 hPa -
Precipitation: 0.25 mm    
Historical Graphs
 
 
Tabular Data for December 6, 2017
Time Temperature Dew Point Pressure Wind Wind Speed Wind Gust Humidity Rainfall Rate (Hourly)
00:00 2 °C -5.4 °C 1010.7 hPa WNW 17.7 km/h 24.1 km/h 58% 0 mm
00:05 1.8 °C -5.3 °C 1010.7 hPa WNW 14.5 km/h 25.7 km/h 59% 0 mm
00:10 1.7 °C -5.7 °C 1010.7 hPa WNW 14.5 km/h 25.7 km/h 58% 0 mm
00:15 1.7 °C -5.5 °C 1010.7 hPa WNW 16.1 km/h 27.4 km/h 59% 0 mm
00:20 1.6 °C -5.6 °C 1010.7 hPa West 14.5 km/h 29 km/h 59% 0 mm
00:25 1.4 °C -5.7 °C 1010.7 hPa WNW 14.5 km/h 29 km/h 59% 0 mm
00:30 1.4 °C -5.8 °C 1010.7 hPa West 14.5 km/h 20.9 km/h 59% 0 mm
00:35 1.3 °C -5.8 °C 1010.7 hPa West 14.5 km/h 25.7 km/h 59% 0 mm
00:40 1.3 °C -5.7 °C 1010.7 hPa WNW 11.3 km/h 24.1 km/h 60% 0 mm
00:45 1.3 °C -5.7 °C 1010.7 hPa West 12.9 km/h 25.7 km/h 60% 0 mm
00:50 1.2 °C -5.7 °C 1010.7 hPa WSW 6.4 km/h 25.7 km/h 60% 0 mm
00:55 1.2 °C -5.7 °C 1010.7 hPa West 24.1 km/h 27.4 km/h 60% 0 mm
01:00 1.1 °C -5.6 °C 1010.7 hPa WSW 4.8 km/h 29 km/h 61% 0 mm
01:05 1.1 °C -5.4 °C 1010.7 hPa West 17.7 km/h 24.1 km/h 62% 0 mm
01:10 1 °C -5.7 °C 1010.7 hPa WNW 9.7 km/h 29 km/h 61% 0 mm
01:15 1 °C -5.5 °C 1010.7 hPa West 12.9 km/h 29 km/h 62% 0 mm
01:20 1 °C -5.1 °C 1010.7 hPa West 9.7 km/h 20.9 km/h 64% 0 mm
01:25 1.1 °C -4.8 °C 1011.1 hPa WSW 9.7 km/h 29 km/h 65% 0 mm
01:30 1.4 °C -3.5 °C 1010.7 hPa WSW 16.1 km/h 38.6 km/h 70% 0 mm
01:35 1.6 °C -3.3 °C 1010.7 hPa WSW 20.9 km/h 43.5 km/h 70% 0 mm
01:40 1.7 °C -3.8 °C 1010.7 hPa WSW 19.3 km/h 43.5 km/h 67% 0 mm
01:45 1.8 °C -4.1 °C 1011.1 hPa WSW 17.7 km/h 33.8 km/h 65% 0 mm
01:50 1.9 °C -4.2 °C 1011.1 hPa WSW 17.7 km/h 35.4 km/h 64% 0 mm
01:55 2 °C -4.5 °C 1011.1 hPa West 20.9 km/h 45.1 km/h 62% 0 mm
02:00 2.1 °C -4.4 °C 1011.1 hPa West 22.5 km/h 45.1 km/h 62% 0 mm
02:05 2.1 °C -4.3 °C 1011.1 hPa West 17.7 km/h 35.4 km/h 63% 0 mm
02:10 2 °C -4.3 °C 1011.1 hPa West 17.7 km/h 33.8 km/h 63% 0 mm
02:15 1.9 °C -4.4 °C 1011.1 hPa West 9.7 km/h 35.4 km/h 63% 0 mm
02:20 2.1 °C -4.3 °C 1011.4 hPa WSW 8 km/h 40.2 km/h 63% 0 mm
02:25 2.1 °C -4.5 °C 1011.4 hPa West 14.5 km/h 41.8 km/h 62% 0 mm
02:30 2.1 °C -3.8 °C 1011.4 hPa WSW 19.3 km/h 41.8 km/h 65% 0 mm
02:35 1.9 °C -2.8 °C 1011.4 hPa WSW 19.3 km/h 45.1 km/h 71% 0 mm
02:40 1.6 °C -2.5 °C 1011.4 hPa SW 20.9 km/h 45.1 km/h 74% 0 mm
02:45 1.3 °C -2.3 °C 1011.7 hPa SW 20.9 km/h 43.5 km/h 77% 0 mm
02:50 0.9 °C -2.3 °C 1011.7 hPa SW 22.5 km/h 43.5 km/h 79% 0 mm
02:55 0.7 °C -2.2 °C 1011.7 hPa SW 29 km/h 38.6 km/h 81% 0 mm
03:00 0.3 °C -2.2 °C 1011.7 hPa WSW 19.3 km/h 51.5 km/h 83% 0 mm
03:05 0.2 °C -2.2 °C 1011.7 hPa WSW 20.9 km/h 51.5 km/h 84% 0 mm
03:10 0.1 °C -2.2 °C 1011.7 hPa WSW 19.3 km/h 43.5 km/h 85% 0 mm
03:15 0.1 °C -2 °C 1011.4 hPa SW 16.1 km/h 22.5 km/h 86% 0 mm
03:20 0.1 °C -1.9 °C 1011.4 hPa WNW 9.7 km/h 27.4 km/h 86% 0 mm
03:25 0.2 °C -2.1 °C 1011.4 hPa West 11.3 km/h 35.4 km/h 85% 0 mm
03:30 0.4 °C -2.5 °C 1011.4 hPa WSW 17.7 km/h 40.2 km/h 81% 0 mm
03:35 0.7 °C -2.8 °C 1011.4 hPa WSW 20.9 km/h 40.2 km/h 77% 0 mm
03:45 1.1 °C -3.1 °C 1011.1 hPa WSW 19.3 km/h 54.7 km/h 74% 0 mm
03:50 1.2 °C -3.2 °C 1011.1 hPa WSW 20.9 km/h 54.7 km/h 73% 0 mm
03:55 1.3 °C -3.2 °C 1011.1 hPa WSW 20.9 km/h 41.8 km/h 72% 0 mm
04:00 1.3 °C -3.2 °C 1011.1 hPa West 20.9 km/h 35.4 km/h 72% 0 mm
04:05 1.4 °C -3.4 °C 1011.1 hPa WSW 24.1 km/h 43.5 km/h 70% 0 mm
04:10 1.5 °C -3.8 °C 1011.1 hPa WSW 22.5 km/h 43.5 km/h 68% 0 mm
04:20 1.6 °C -4.1 °C 1011.1 hPa West 20.9 km/h 45.1 km/h 66% 0 mm
04:25 1.6 °C -4.3 °C 1011.4 hPa WSW 16.1 km/h 35.4 km/h 65% 0 mm
04:30 1.6 °C -4.3 °C 1011.1 hPa West 30.6 km/h 35.4 km/h 65% 0 mm
04:35 1.6 °C -4.1 °C 1011.1 hPa West 20.9 km/h 45.1 km/h 66% 0 mm
04:40 1.6 °C -4.1 °C 1011.4 hPa West 22.5 km/h 38.6 km/h 66% 0 mm
04:45 1.7 °C -4 °C 1011.1 hPa WSW 22.5 km/h 45.1 km/h 66% 0 mm
04:50 1.7 °C -4.4 °C 1011.1 hPa WSW 22.5 km/h 51.5 km/h 64% 0 mm
04:55 1.6 °C -4.3 °C 1011.4 hPa SW 20.9 km/h 35.4 km/h 65% 0 mm
05:00 1.6 °C -4.7 °C 1011.1 hPa WSW 25.7 km/h 49.9 km/h 63% 0 mm
05:05 1.6 °C -4.7 °C 1011.1 hPa West 32.2 km/h 43.5 km/h 63% 0 mm
05:10 1.6 °C -4.5 °C 1011.4 hPa WSW 27.4 km/h 32.2 km/h 64% 0 mm
05:15 1.6 °C -4.5 °C 1011.4 hPa West 20.9 km/h 40.2 km/h 64% 0 mm
05:20 1.6 °C -4.7 °C 1011.1 hPa WSW 19.3 km/h 40.2 km/h 63% 0 mm
05:25 1.7 °C -4.8 °C 1011.4 hPa WSW 20.9 km/h 43.5 km/h 62% 0 mm
05:30 1.7 °C -4.8 °C 1011.4 hPa WSW 20.9 km/h 43.5 km/h 62% 0 mm
05:35 1.7 °C -4.8 °C 1011.4 hPa WSW 17.7 km/h 40.2 km/h 62% 0 mm
05:40 1.7 °C -4.8 °C 1011.4 hPa WSW 19.3 km/h 40.2 km/h 62% 0 mm
05:45 1.7 °C -4.8 °C 1011.4 hPa SW 12.9 km/h 37 km/h 62% 0 mm
05:50 1.7 °C -4.8 °C 1011.4 hPa WSW 17.7 km/h 37 km/h 62% 0 mm
05:55 1.8 °C -4.7 °C 1011.4 hPa West 30.6 km/h 38.6 km/h 62% 0 mm
06:00 1.7 °C -4.2 °C 1011.4 hPa West 11.3 km/h 30.6 km/h 65% 0 mm
06:05 1.6 °C -4.1 °C 1011.4 hPa SW 19.3 km/h 25.7 km/h 66% 0 mm
06:10 1.5 °C -3.9 °C 1011.7 hPa WSW 16.1 km/h 37 km/h 67% 0 mm
06:15 1.4 °C -4.2 °C 1011.7 hPa West 29 km/h 40.2 km/h 66% 0 mm
06:20 1.3 °C -4.3 °C 1011.7 hPa WSW 11.3 km/h 43.5 km/h 66% 0 mm
06:25 1.2 °C -4.4 °C 1011.7 hPa SW 20.9 km/h 43.5 km/h 66% 0 mm
06:30 1.1 °C -4.7 °C 1011.7 hPa SW 20.9 km/h 43.5 km/h 65% 0 mm
06:35 0.9 °C -4.9 °C 1011.7 hPa SW 20.9 km/h 43.5 km/h 65% 0 mm
06:40 0.9 °C -4.8 °C 1011.7 hPa SW 19.3 km/h 45.1 km/h 66% 0 mm
06:45 0.8 °C -4.8 °C 1011.7 hPa SW 17.7 km/h 45.1 km/h 66% 0 mm
06:50 0.8 °C -5.1 °C 1011.7 hPa WSW 16.1 km/h 38.6 km/h 65% 0 mm
06:55 0.7 °C -5.1 °C 1011.7 hPa SSE 11.3 km/h 41.8 km/h 65% 0 mm
07:00 0.7 °C -4.9 °C 1012.1 hPa SW 19.3 km/h 41.8 km/h 66% 0 mm
07:05 0.7 °C -4.9 °C 1012.1 hPa SW 17.7 km/h 37 km/h 66% 0 mm
07:10 0.6 °C -5.2 °C 1012.1 hPa WSW 14.5 km/h 37 km/h 65% 0 mm
07:15 0.6 °C -5.2 °C 1011.7 hPa SW 20.9 km/h 30.6 km/h 65% 0 mm
07:20 0.6 °C -5.3 °C 1012.1 hPa SSW 30.6 km/h 32.2 km/h 65% 0 mm
07:25 0.5 °C -5.3 °C 1011.7 hPa SSW 11.3 km/h 33.8 km/h 65% 0 mm
07:30 0.4 °C -5.4 °C 1012.1 hPa SSW 11.3 km/h 30.6 km/h 65% 0 mm
07:35 0.4 °C -5.6 °C 1012.1 hPa SW 16.1 km/h 35.4 km/h 64% 0 mm
07:40 0.3 °C -5.7 °C 1012.1 hPa SW 17.7 km/h 35.4 km/h 64% 0 mm
07:45 0.3 °C -5.5 °C 1012.1 hPa SW 17.7 km/h 38.6 km/h 65% 0 mm
07:50 0.3 °C -5.5 °C 1012.1 hPa SW 16.1 km/h 38.6 km/h 65% 0 mm
07:55 0.3 °C -5.7 °C 1012.1 hPa WSW 11.3 km/h 29 km/h 64% 0 mm
08:00 0.2 °C -5.8 °C 1012.1 hPa SE 12.9 km/h 29 km/h 64% 0 mm
08:05 0.2 °C -5.8 °C 1012.1 hPa WSW 22.5 km/h 29 km/h 64% 0 mm
08:10 0.2 °C -6 °C 1012.1 hPa SSW 17.7 km/h 41.8 km/h 63% 0 mm
08:15 0.1 °C -6.3 °C 1012.1 hPa WSW 9.7 km/h 38.6 km/h 62% 0 mm
08:20 0.1 °C -6.3 °C 1012.1 hPa SSW 11.3 km/h 30.6 km/h 62% 0 mm
08:25 0.1 °C -6.6 °C 1012.1 hPa SSW 20.9 km/h 38.6 km/h 61% 0 mm
08:30 0.1 °C -6.6 °C 1012.1 hPa West 16.1 km/h 41.8 km/h 61% 0 mm
08:35 0.1 °C -6.7 °C 1012.1 hPa SSE 30.6 km/h 35.4 km/h 60% 0 mm
08:40 0.1 °C -6.8 °C 1012.1 hPa SW 9.7 km/h 30.6 km/h 60% 0 mm
08:45 0.1 °C -6.6 °C 1012.1 hPa SW 12.9 km/h 30.6 km/h 61% 0 mm
08:50 0 °C -6.8 °C 1012.1 hPa SW 14.5 km/h 33.8 km/h 60% 0 mm
08:55 0.1 °C -6.6 °C 1012.1 hPa SW 17.7 km/h 33.8 km/h 61% 0 mm
09:00 0.2 °C -6.5 °C 1012.1 hPa SW 16.1 km/h 35.4 km/h 61% 0 mm
09:05 0.2 °C -6.7 °C 1012.1 hPa SW 17.7 km/h 37 km/h 60% 0 mm
09:10 0.2 °C -6.4 °C 1012.1 hPa SW 16.1 km/h 37 km/h 61% 0 mm
09:15 0.2 °C -6.7 °C 1012.1 hPa SW 22.5 km/h 32.2 km/h 60% 0 mm
09:20 0.3 °C -6.4 °C 1012.1 hPa SSW 11.3 km/h 29 km/h 61% 0 mm
09:25 0.3 °C -6.4 °C 1012.1 hPa SW 11.3 km/h 32.2 km/h 61% 0 mm
09:30 0.4 °C -6 °C 1012.1 hPa SW 8 km/h 32.2 km/h 62% 0 mm
09:35 0.6 °C -5.7 °C 1011.7 hPa SSW 11.3 km/h 43.5 km/h 63% 0 mm
09:40 0.7 °C -5.6 °C 1011.7 hPa SW 29 km/h 35.4 km/h 63% 0 mm
09:45 0.7 °C -5.3 °C 1011.4 hPa SSW 24.1 km/h 45.1 km/h 64% 0 mm
09:50 0.8 °C -5.3 °C 1011.7 hPa SW 19.3 km/h 45.1 km/h 64% 0 mm
09:55 0.8 °C -5.3 °C 1011.7 hPa SW 19.3 km/h 33.8 km/h 64% 0 mm
10:00 0.8 °C -5.5 °C 1011.7 hPa SW 19.3 km/h 41.8 km/h 63% 0 mm
10:05 0.8 °C -5.2 °C 1011.7 hPa SW 17.7 km/h 41.8 km/h 64% 0 mm
10:10 0.8 °C -5.4 °C 1011.7 hPa SW 17.7 km/h 37 km/h 63% 0 mm
10:15 0.8 °C -5.4 °C 1011.7 hPa South 20.9 km/h 32.2 km/h 63% 0 mm
10:20 0.9 °C -5.4 °C 1011.7 hPa SW 22.5 km/h 37 km/h 63% 0 mm
10:25 1 °C -5.1 °C 1011.7 hPa SW 17.7 km/h 37 km/h 64% 0 mm
10:30 1 °C -5.1 °C 1011.7 hPa SW 17.7 km/h 40.2 km/h 64% 0 mm
10:35 1.1 °C -5 °C 1011.7 hPa SW 17.7 km/h 40.2 km/h 64% 0 mm
10:40 1.2 °C -4.7 °C 1011.7 hPa SW 19.3 km/h 40.2 km/h 65% 0 mm
10:45 1.2 °C -4.4 °C 1011.7 hPa SW 29 km/h 40.2 km/h 66% 0 mm
10:50 1.2 °C -4.6 °C 1011.7 hPa SSW 8 km/h 51.5 km/h 65% 0 mm
10:55 1.3 °C -4.4 °C 1011.7 hPa West 8 km/h 46.7 km/h 66% 0 mm
11:00 1.4 °C -4.3 °C 1011.7 hPa SW 20.9 km/h 46.7 km/h 66% 0 mm
11:05 1.4 °C -4.3 °C 1011.7 hPa SW 19.3 km/h 38.6 km/h 66% 0 mm
11:10 1.4 °C -4 °C 1011.4 hPa SW 20.9 km/h 40.2 km/h 67% 0 mm
11:15 1.5 °C -3.8 °C 1011.4 hPa West 25.7 km/h 40.2 km/h 68% 0 mm
11:20 1.6 °C -3.7 °C 1011.1 hPa SW 19.3 km/h 40.2 km/h 68% 0 mm
11:25 1.7 °C -3.6 °C 1011.1 hPa West 29 km/h 40.2 km/h 68% 0 mm
11:30 1.8 °C -3.3 °C 1011.1 hPa SW 9.7 km/h 40.2 km/h 69% 0 mm
11:35 1.8 °C -3.1 °C 1011.1 hPa SW 19.3 km/h 49.9 km/h 70% 0 mm
11:40 1.6 °C -3.1 °C 1010.7 hPa SW 19.3 km/h 49.9 km/h 71% 0 mm
11:45 1.6 °C -3.1 °C 1010.7 hPa SW 20.9 km/h 38.6 km/h 71% 0 mm
11:50 1.8 °C -2.9 °C 1010.7 hPa SSW 32.2 km/h 46.7 km/h 71% 0 mm
11:55 1.9 °C -2.8 °C 1010.7 hPa SW 12.9 km/h 49.9 km/h 71% 0 mm
12:00 1.8 °C -2.7 °C 1010.7 hPa West 20.9 km/h 46.7 km/h 72% 0 mm
12:05 1.8 °C -2.4 °C 1010.7 hPa SSW 19.3 km/h 38.6 km/h 74% 0 mm
12:10 1.8 °C -2.4 °C 1010.4 hPa SW 22.5 km/h 43.5 km/h 74% 0 mm
12:15 1.8 °C -2.2 °C 1010.4 hPa WSW 30.6 km/h 37 km/h 75% 0 mm
12:20 2 °C -1.9 °C 1010.4 hPa SW 19.3 km/h 35.4 km/h 75% 0 mm
12:25 2.3 °C -2.6 °C 1010.4 hPa SSW 12.9 km/h 38.6 km/h 70% 0 mm
12:30 2.7 °C -2.8 °C 1010.4 hPa West 11.3 km/h 33.8 km/h 67% 0 mm
12:35 2.8 °C -2.7 °C 1010.4 hPa SW 17.7 km/h 37 km/h 67% 0 mm
12:40 2.6 °C -2.1 °C 1010.4 hPa WSW 20.9 km/h 32.2 km/h 71% 0 mm
12:45 2.2 °C -2 °C 1010.4 hPa WSW 17.7 km/h 32.2 km/h 74% 0 mm
12:50 1.8 °C -1.8 °C 1010.7 hPa WSW 17.7 km/h 32.2 km/h 77% 0 mm
12:55 1.4 °C -1.8 °C 1010.7 hPa WSW 17.7 km/h 41.8 km/h 79% 0 mm
13:00 1.2 °C -1.7 °C 1010.7 hPa West 17.7 km/h 35.4 km/h 81% 0 mm
13:05 0.9 °C -1.7 °C 1010.4 hPa WSW 22.5 km/h 33.8 km/h 83% 0 mm
13:10 0.7 °C -1.7 °C 1010.4 hPa WSW 17.7 km/h 35.4 km/h 84% 0 mm
13:15 0.7 °C -1.6 °C 1010.4 hPa WSW 22.5 km/h 40.2 km/h 85% 0 mm
13:20 0.6 °C -1.4 °C 1010.4 hPa WSW 20.9 km/h 40.2 km/h 86% 0 mm
13:25 0.6 °C -1.5 °C 1010.4 hPa SW 19.3 km/h 35.4 km/h 86% 0 mm
13:30 0.4 °C -1.4 °C 1010.4 hPa SW 17.7 km/h 32.2 km/h 87% 0 mm
13:35 0.5 °C -1.4 °C 1010.7 hPa WNW 9.7 km/h 37 km/h 87% 0 mm
13:40 0.5 °C -1.3 °C 1010.7 hPa SW 24.1 km/h 29 km/h 88% 0 mm
13:45 0.5 °C -1.3 °C 1010.7 hPa WSW 14.5 km/h 29 km/h 88% 0 mm
13:50 0.5 °C -1.3 °C 1010.7 hPa WSW 14.5 km/h 29 km/h 88% 0 mm
13:55 0.6 °C -1.2 °C 1010.7 hPa WSW 12.9 km/h 27.4 km/h 88% 0 mm
14:00 0.6 °C -1.2 °C 1010.7 hPa WSW 12.9 km/h 27.4 km/h 88% 0 mm
14:05 0.6 °C -1.2 °C 1010.7 hPa WSW 24.1 km/h 48.3 km/h 88% 0 mm
14:10 0.6 °C -1.2 °C 1010.7 hPa SSE 16.1 km/h 40.2 km/h 88% 0 mm
14:15 0.7 °C -1.1 °C 1010.4 hPa WSW 24.1 km/h 35.4 km/h 88% 0 mm
14:20 0.7 °C -1.2 °C 1010.7 hPa SW 17.7 km/h 45.1 km/h 87% 0 mm
14:25 0.8 °C -1.2 °C 1010.7 hPa SW 20.9 km/h 45.1 km/h 87% 0 mm
14:30 0.8 °C -1.2 °C 1010.7 hPa SW 22.5 km/h 38.6 km/h 87% 0 mm
14:35 0.7 °C -1.2 °C 1010.4 hPa SW 19.3 km/h 37 km/h 87% 0 mm
14:40 0.7 °C -1.2 °C 1010.4 hPa SW 16.1 km/h 32.2 km/h 87% 0 mm
14:45 0.7 °C -1.2 °C 1010.4 hPa SW 11.3 km/h 29 km/h 87% 0 mm
14:50 0.8 °C -1.2 °C 1010.4 hPa West 16.1 km/h 32.2 km/h 87% 0 mm
14:55 1 °C -1.1 °C 1010.4 hPa South 9.7 km/h 35.4 km/h 86% 0 mm
15:00 1.2 °C -1.1 °C 1010.4 hPa SW 19.3 km/h 37 km/h 85% 0 mm
15:05 1.3 °C -1.1 °C 1010.4 hPa SSW 22.5 km/h 35.4 km/h 84% 0 mm
15:10 1.4 °C -1.3 °C 1010.7 hPa WSW 19.3 km/h 48.3 km/h 82% 0 mm
15:15 1.3 °C -1.4 °C 1010.7 hPa SW 16.1 km/h 43.5 km/h 82% 0 mm
15:20 1.3 °C -1.4 °C 1010.7 hPa West 22.5 km/h 30.6 km/h 82% 0 mm
15:25 1.2 °C -1.3 °C 1010.7 hPa WSW 20.9 km/h 41.8 km/h 83% 0 mm
15:30 1.1 °C -1.5 °C 1010.7 hPa SW 8 km/h 37 km/h 83% 0 mm
15:35 1 °C -1.4 °C 1010.7 hPa WSW 16.1 km/h 37 km/h 84% 0 mm
15:40 1 °C -1.4 °C 1010.7 hPa WSW 12.9 km/h 24.1 km/h 84% 0 mm
15:45 1.1 °C -1.3 °C 1010.7 hPa SW 16.1 km/h 27.4 km/h 84% 0 mm
15:50 1.3 °C -1.1 °C 1010.7 hPa WSW 16.1 km/h 27.4 km/h 84% 0 mm
15:55 1.4 °C -1.2 °C 1010.7 hPa WSW 16.1 km/h 32.2 km/h 83% 0 mm
16:00 1.4 °C -1.1 °C 1010.4 hPa WSW 12.9 km/h 25.7 km/h 83% 0 mm
16:05 1.6 °C -1 °C 1010.4 hPa WSW 16.1 km/h 38.6 km/h 83% 0 mm
16:10 1.7 °C -1.2 °C 1010.7 hPa SW 19.3 km/h 38.6 km/h 81% 0 mm
16:15 1.8 °C -1.1 °C 1010.4 hPa WSW 9.7 km/h 32.2 km/h 81% 0 mm
16:20 1.8 °C -1.1 °C 1010.4 hPa NW 14.5 km/h 32.2 km/h 81% 0 mm
16:25 1.8 °C -0.9 °C 1010.7 hPa SSE 16.1 km/h 40.2 km/h 82% 0 mm
16:30 1.6 °C -1.1 °C 1010.4 hPa SW 19.3 km/h 32.2 km/h 82% 0 mm
16:35 1.4 °C -1.1 °C 1010.4 hPa SW 14.5 km/h 35.4 km/h 83% 0 mm
16:40 1.4 °C -1 °C 1010.4 hPa SW 17.7 km/h 35.4 km/h 84% 0 mm
16:45 1.4 °C -0.8 °C 1010.4 hPa SW 19.3 km/h 48.3 km/h 85% 0 mm
16:50 1.4 °C -0.8 °C 1010.4 hPa SW 20.9 km/h 48.3 km/h 85% 0 mm
16:55 1.4 °C -0.8 °C 1010.4 hPa SW 19.3 km/h 37 km/h 85% 0 mm
17:00 1.3 °C -0.9 °C 1010.4 hPa SW 16.1 km/h 30.6 km/h 85% 0 mm
17:05 1.3 °C -0.9 °C 1010.4 hPa SW 14.5 km/h 27.4 km/h 85% 0 mm
17:10 1.3 °C -0.9 °C 1010.7 hPa WSW 11.3 km/h 38.6 km/h 85% 0 mm
17:15 1.3 °C -0.9 °C 1010.7 hPa SSW 12.9 km/h 35.4 km/h 85% 0 mm
17:20 1.2 °C -0.9 °C 1010.7 hPa WSW 12.9 km/h 29 km/h 86% 0 mm
17:25 1.2 °C -0.9 °C 1011.1 hPa West 8 km/h 22.5 km/h 86% 0 mm
17:30 1.2 °C -0.9 °C 1010.7 hPa WNW 24.1 km/h 41.8 km/h 86% 0 mm
17:35 1.2 °C -0.9 °C 1010.7 hPa West 6.4 km/h 25.7 km/h 86% 0 mm
17:40 1.2 °C -0.9 °C 1010.4 hPa SW 17.7 km/h 19.3 km/h 86% 0 mm
17:45 1.3 °C -0.8 °C 1010.7 hPa WSW 11.3 km/h 20.9 km/h 86% 0 mm
17:50 1.4 °C -0.7 °C 1010.7 hPa West 12.9 km/h 32.2 km/h 86% 0 mm
17:55 1.5 °C -0.7 °C 1010.4 hPa WSW 12.9 km/h 32.2 km/h 85% 0 mm
18:00 1.5 °C -0.7 °C 1010.7 hPa WSW 14.5 km/h 29 km/h 85% 0 mm
18:05 1.6 °C -0.7 °C 1010.7 hPa WSW 11.3 km/h 29 km/h 85% 0 mm
18:10 1.6 °C -0.7 °C 1010.7 hPa WSW 12.9 km/h 27.4 km/h 85% 0 mm
18:15 1.7 °C -0.6 °C 1010.4 hPa West 11.3 km/h 29 km/h 85% 0 mm
18:20 1.8 °C -0.4 °C 1010.7 hPa WSW 12.9 km/h 29 km/h 85% 0 mm
18:25 1.9 °C -0.5 °C 1010.7 hPa West 8 km/h 14.5 km/h 84% 0 mm
18:30 2 °C -0.6 °C 1011.1 hPa West 8 km/h 17.7 km/h 83% 0 mm
18:35 1.9 °C -0.8 °C 1010.7 hPa West 9.7 km/h 29 km/h 82% 0 mm
18:40 2 °C -1.3 °C 1010.7 hPa WSW 9.7 km/h 29 km/h 79% 0 mm
18:45 2.1 °C -1.4 °C 1010.7 hPa WNW 20.9 km/h 27.4 km/h 78% 0 mm
18:50 2.1 °C -1.3 °C 1011.1 hPa West 19.3 km/h 22.5 km/h 78% 0 mm
18:55 2.1 °C -1.4 °C 1011.1 hPa West 14.5 km/h 25.7 km/h 78% 0 mm
19:00 2 °C -1.3 °C 1011.1 hPa West 12.9 km/h 25.7 km/h 79% 0 mm
19:05 1.9 °C -1.3 °C 1011.4 hPa West 9.7 km/h 24.1 km/h 79% 0 mm
19:10 1.9 °C -1.4 °C 1011.1 hPa West 9.7 km/h 19.3 km/h 79% 0 mm
19:15 1.8 °C -1.5 °C 1011.4 hPa West 9.7 km/h 17.7 km/h 79% 0 mm
19:20 1.8 °C -1.5 °C 1011.4 hPa West 8 km/h 19.3 km/h 79% 0 mm
19:25 1.7 °C -1.7 °C 1011.4 hPa West 9.7 km/h 20.9 km/h 78% 0 mm
19:30 1.7 °C -1.9 °C 1011.4 hPa WNW 12.9 km/h 20.9 km/h 77% 0 mm
19:35 1.7 °C -2.2 °C 1011.4 hPa West 4.8 km/h 24.1 km/h 75% 0 mm
19:40 1.7 °C -2.3 °C 1011.4 hPa West 14.5 km/h 20.9 km/h 75% 0 mm
19:45 1.7 °C -2.5 °C 1011.4 hPa WNW 9.7 km/h 19.3 km/h 74% 0 mm
19:50 1.7 °C -2.7 °C 1011.4 hPa West 3.2 km/h 17.7 km/h 73% 0 mm
19:55 1.7 °C -2.7 °C 1011.4 hPa NW 11.3 km/h 16.1 km/h 73% 0 mm
20:00 1.7 °C -2.7 °C 1011.4 hPa West 9.7 km/h 19.3 km/h 73% 0 mm
20:05 1.7 °C -2.8 °C 1011.7 hPa West 11.3 km/h 24.1 km/h 72% 0 mm
20:10 1.6 °C -2.5 °C 1011.4 hPa West 12.9 km/h 25.7 km/h 74% 0 mm
20:15 1.4 °C -2.6 °C 1011.4 hPa West 11.3 km/h 25.7 km/h 75% 0 mm
20:20 1.3 °C -2.6 °C 1011.7 hPa WSW 11.3 km/h 14.5 km/h 75% 0 mm
20:25 1.3 °C -2.8 °C 1011.7 hPa WSW 9.7 km/h 17.7 km/h 74% 0 mm
20:30 1.4 °C -2.7 °C 1011.7 hPa West 9.7 km/h 16.1 km/h 74% 0 mm
20:35 1.4 °C -2.9 °C 1011.7 hPa WSW 12.9 km/h 24.1 km/h 73% 0 mm
20:40 1.6 °C -2.9 °C 1011.7 hPa West 6.4 km/h 19.3 km/h 72% 0 mm
20:45 1.6 °C -3.4 °C 1011.7 hPa SW 6.4 km/h 25.7 km/h 69% 0 mm
20:50 1.7 °C -3.6 °C 1011.7 hPa WSW 17.7 km/h 25.7 km/h 68% 0 mm
20:55 1.7 °C -4 °C 1011.7 hPa West 16.1 km/h 33.8 km/h 66% 0 mm
21:00 1.7 °C -4.2 °C 1011.7 hPa West 19.3 km/h 25.7 km/h 65% 0 mm
21:05 1.7 °C -4.2 °C 1011.7 hPa West 24.1 km/h 33.8 km/h 65% 0.25 mm
21:10 1.7 °C -4.2 °C 1011.7 hPa West 12.9 km/h 33.8 km/h 65% 0.25 mm
21:15 1.7 °C -4.4 °C 1011.7 hPa West 12.9 km/h 29 km/h 64% 0.25 mm
21:20 1.6 °C -4.7 °C 1011.7 hPa West 16.1 km/h 35.4 km/h 63% 0.25 mm
21:25 1.6 °C -4.7 °C 1011.7 hPa West 16.1 km/h 35.4 km/h 63% 0.25 mm
21:30 1.6 °C -4.9 °C 1011.7 hPa West 12.9 km/h 29 km/h 62% 0.25 mm
21:35 1.6 °C -5.2 °C 1012.1 hPa WNW 8 km/h 29 km/h 61% 0.25 mm
21:40 1.5 °C -5.2 °C 1012.1 hPa West 14.5 km/h 29 km/h 61% 0.25 mm
21:45 1.4 °C -5.5 °C 1012.1 hPa WNW 19.3 km/h 27.4 km/h 60% 0.25 mm
21:50 1.5 °C -5.4 °C 1012.1 hPa West 17.7 km/h 32.2 km/h 60% 0.25 mm
21:55 1.4 °C -5.7 °C 1011.7 hPa WNW 24.1 km/h 27.4 km/h 59% 0.25 mm
22:00 1.4 °C -5.6 °C 1012.1 hPa WSW 16.1 km/h 27.4 km/h 60% 0.25 mm
22:05 1.4 °C -5.6 °C 1012.1 hPa West 17.7 km/h 27.4 km/h 60% 0 mm
22:10 1.4 °C -5.5 °C 1012.4 hPa West 14.5 km/h 32.2 km/h 60% 0 mm
22:20 1.6 °C -5.6 °C 1012.4 hPa West 17.7 km/h 30.6 km/h 59% 0 mm
22:25 1.6 °C -5.6 °C 1012.4 hPa West 16.1 km/h 35.4 km/h 59% 0 mm
22:30 1.6 °C -5.6 °C 1012.4 hPa West 14.5 km/h 35.4 km/h 59% 0 mm
22:35 1.5 °C -5.7 °C 1012.8 hPa West 14.5 km/h 30.6 km/h 59% 0 mm
22:40 1.5 °C -5.7 °C 1012.8 hPa West 20.9 km/h 30.6 km/h 59% 0 mm
22:45 1.4 °C -5.5 °C 1012.8 hPa West 12.9 km/h 30.6 km/h 60% 0 mm
22:50 1.4 °C -5.7 °C 1012.8 hPa West 12.9 km/h 25.7 km/h 59% 0 mm
22:55 1.4 °C -5.7 °C 1012.8 hPa West 14.5 km/h 30.6 km/h 59% 0 mm
23:00 1.4 °C -5.6 °C 1012.8 hPa West 19.3 km/h 25.7 km/h 60% 0 mm
23:05 1.4 °C -5.6 °C 1012.8 hPa WNW 12.9 km/h 29 km/h 60% 0 mm
23:10 1.3 °C -5.6 °C 1012.8 hPa West 12.9 km/h 29 km/h 60% 0 mm
23:20 1.2 °C -5.7 °C 1012.8 hPa West 12.9 km/h 30.6 km/h 60% 0 mm
23:25 1.2 °C -5.7 °C 1012.8 hPa West 14.5 km/h 33.8 km/h 60% 0 mm
23:30 1.1 °C -5.8 °C 1012.8 hPa West 19.3 km/h 27.4 km/h 60% 0 mm
23:35 1 °C -5.9 °C 1013.1 hPa West 14.5 km/h 27.4 km/h 60% 0 mm
23:40 1 °C -5.9 °C 1013.1 hPa West 12.9 km/h 25.7 km/h 60% 0 mm
23:45 1.1 °C -5.8 °C 1013.1 hPa West 12.9 km/h 25.7 km/h 60% 0 mm
23:50 1.1 °C -5.6 °C 1012.8 hPa NW 17.7 km/h 22.5 km/h 61% 0 mm
23:55 1 °C -5.9 °C 1012.8 hPa West 12.9 km/h 22.5 km/h 60% 0 mm
Buffalo, New York, USA
Compliments of Weather Underground - 2.5 mb